Time;durP1;ratioP1;P1;durP2;ratioP2;P2;SDS_P1;SDS_P2;PMS_P1;PMS_P2;Temp;Humidity;BMP_temperature;BMP_pressure;BME280_temperature;BME280_humidity;BME280_pressure;Samples;Min_cycle;Max_cycle;Signal;HPM_P1;HPM_P2
2023/10/28 00:00:58;;;;;;;10.57;4.13;;;;;9.80;99014.00;;;;5019000;28;20293;-70
2023/10/28 00:03:45;;;;;;;8.80;4.03;;;;;9.80;99016.00;;;;5022779;28;20229;-70
2023/10/28 00:06:31;;;;;;;7.47;4.53;;;;;9.80;99014.00;;;;5023130;28;20720;-70
2023/10/28 00:09:20;;;;;;;8.13;4.77;;;;;9.80;99020.00;;;;5043615;28;20228;-71
2023/10/28 00:12:08;;;;;;;7.03;4.30;;;;;9.80;99018.00;;;;5043985;28;20228;-71
2023/10/28 00:14:54;;;;;;;7.20;3.47;;;;;9.80;98999.00;;;;5025926;28;20247;-70
2023/10/28 00:17:42;;;;;;;18.47;4.03;;;;;9.80;99020.00;;;;5019023;28;20226;-71
2023/10/28 00:20:29;;;;;;;6.43;3.73;;;;;9.70;99001.00;;;;5024137;28;20273;-72
2023/10/28 00:23:16;;;;;;;8.57;4.17;;;;;9.70;99007.00;;;;5017586;28;20237;-70
2023/10/28 00:26:05;;;;;;;6.90;3.70;;;;;9.70;99011.00;;;;5020011;28;20237;-71
2023/10/28 00:28:52;;;;;;;9.80;3.63;;;;;9.70;99012.00;;;;5019515;28;20813;-72
2023/10/28 00:31:38;;;;;;;11.00;4.00;;;;;9.70;99016.00;;;;5020471;28;20672;-73
2023/10/28 00:34:26;;;;;;;6.27;3.20;;;;;9.70;99016.00;;;;5032034;28;20237;-71
2023/10/28 00:37:12;;;;;;;8.10;3.47;;;;;9.70;99017.00;;;;5017380;28;20279;-71
2023/10/28 00:39:58;;;;;;;9.90;4.43;;;;;9.70;99015.00;;;;5025371;28;20243;-71
2023/10/28 00:42:45;;;;;;;10.30;4.10;;;;;9.70;99009.00;;;;5038315;28;20237;-70
2023/10/28 00:45:31;;;;;;;7.03;3.80;;;;;9.70;99016.00;;;;5025874;28;20767;-70
2023/10/28 00:48:19;;;;;;;9.57;3.60;;;;;9.80;99026.00;;;;5025345;28;20791;-71
2023/10/28 00:51:07;;;;;;;8.97;4.17;;;;;9.90;99025.00;;;;5019818;28;20237;-69
2023/10/28 00:53:53;;;;;;;8.47;4.30;;;;;9.90;99016.00;;;;5044105;28;20714;-70
2023/10/28 00:56:40;;;;;;;10.73;3.90;;;;;9.90;99017.00;;;;5039882;28;20748;-70
2023/10/28 00:59:27;;;;;;;7.43;3.97;;;;;10.00;99020.00;;;;5034315;28;20233;-70
2023/10/28 01:02:14;;;;;;;6.43;3.90;;;;;10.00;99019.00;;;;5042066;28;20224;-70
2023/10/28 01:05:00;;;;;;;5.43;3.47;;;;;10.00;99023.00;;;;5032459;28;20833;-70
2023/10/28 01:07:49;;;;;;;10.40;4.20;;;;;10.10;99002.00;;;;5016526;28;20597;-70
2023/10/28 01:10:38;;;;;;;7.33;3.63;;;;;10.10;99009.00;;;;5019617;28;20257;-70
2023/10/28 01:13:24;;;;;;;10.97;4.03;;;;;10.10;99019.00;;;;5019739;28;20901;-71
2023/10/28 01:16:11;;;;;;;7.60;4.10;;;;;10.20;99014.00;;;;5019092;28;20271;-70
2023/10/28 01:18:57;;;;;;;9.77;4.00;;;;;10.20;99010.00;;;;5020692;28;20771;-69
2023/10/28 01:21:45;;;;;;;11.03;3.63;;;;;10.20;99018.00;;;;5019799;28;20221;-71
2023/10/28 01:24:32;;;;;;;6.97;3.83;;;;;10.30;99004.00;;;;5040497;28;20221;-71
2023/10/28 01:27:19;;;;;;;6.53;3.97;;;;;10.20;99015.00;;;;5037081;28;20739;-72
2023/10/28 01:30:13;;;;;;;11.93;4.10;;;;;10.20;99005.00;;;;5042478;28;21057;-71
2023/10/28 01:32:59;;;;;;;8.00;4.10;;;;;10.20;98995.00;;;;5019597;28;20911;-71
2023/10/28 01:35:45;;;;;;;11.90;3.57;;;;;10.20;99015.00;;;;4986236;28;20226;-71
2023/10/28 01:38:35;;;;;;;13.73;3.20;;;;;10.30;99009.00;;;;5057804;28;20232;-71
2023/10/28 01:41:22;;;;;;;13.17;3.40;;;;;10.20;99016.00;;;;5028391;28;20308;-70
2023/10/28 01:44:08;;;;;;;7.50;3.87;;;;;10.20;99015.00;;;;5031484;28;20729;-72
2023/10/28 01:46:55;;;;;;;9.77;3.90;;;;;10.20;99018.00;;;;5036655;28;20233;-72
2023/10/28 01:49:43;;;;;;;7.97;3.70;;;;;10.30;99016.00;;;;5040234;28;20234;-69
2023/10/28 01:52:30;;;;;;;12.10;3.90;;;;;10.30;99013.00;;;;5043282;28;20227;-73
2023/10/28 01:55:17;;;;;;;9.73;3.70;;;;;10.30;99025.00;;;;5042297;28;20221;-70
2023/10/28 01:58:03;;;;;;;7.93;3.87;;;;;10.30;99019.00;;;;5017938;28;20253;-69
2023/10/28 02:00:53;;;;;;;10.27;4.03;;;;;10.40;99025.00;;;;5018278;28;20308;-70
2023/10/28 02:03:39;;;;;;;7.43;3.23;;;;;10.40;99030.00;;;;5022610;28;20229;-71
2023/10/28 02:06:25;;;;;;;6.53;3.87;;;;;10.40;99033.00;;;;5007778;28;20250;-71
2023/10/28 02:09:12;;;;;;;8.80;3.97;;;;;10.50;99031.00;;;;5039462;28;20233;-69
2023/10/28 02:12:02;;;;;;;8.07;3.50;;;;;10.40;99031.00;;;;5046481;28;20387;-71
2023/10/28 02:14:48;;;;;;;11.43;3.30;;;;;10.50;99034.00;;;;5043796;28;20608;-72
2023/10/28 02:17:36;;;;;;;7.37;3.07;;;;;10.50;99030.00;;;;5040130;28;20210;-70
2023/10/28 02:20:22;;;;;;;6.70;3.33;;;;;10.50;99030.00;;;;5035056;28;20228;-70
2023/10/28 02:23:09;;;;;;;12.27;3.67;;;;;10.50;99037.00;;;;5022336;28;20972;-70
2023/10/28 02:25:55;;;;;;;8.50;3.20;;;;;10.50;99036.00;;;;5036927;28;20234;-71
2023/10/28 02:28:43;;;;;;;7.03;3.30;;;;;10.50;99036.00;;;;5044731;28;20240;-71
2023/10/28 02:31:30;;;;;;;8.83;3.73;;;;;10.50;99040.00;;;;5043672;28;20255;-70
2023/10/28 02:34:17;;;;;;;13.63;3.50;;;;;10.50;99038.00;;;;5014841;28;20229;-71
2023/10/28 02:37:06;;;;;;;5.67;3.50;;;;;10.50;99043.00;;;;5016196;28;20936;-71
2023/10/28 02:39:53;;;;;;;5.70;3.40;;;;;10.50;99047.00;;;;5024063;28;20237;-71
2023/10/28 02:42:41;;;;;;;7.73;3.03;;;;;10.60;99044.00;;;;5024216;28;20278;-71
2023/10/28 02:45:29;;;;;;;7.10;4.10;;;;;10.60;99047.00;;;;5017782;28;20969;-69
2023/10/28 02:48:15;;;;;;;7.70;3.70;;;;;10.60;99041.00;;;;5018351;28;20626;-70
2023/10/28 02:51:05;;;;;;;7.47;4.20;;;;;10.60;99050.00;;;;5022071;28;20257;-72
2023/10/28 02:53:52;;;;;;;7.67;3.90;;;;;10.60;99052.00;;;;5016927;28;20242;-70
2023/10/28 02:56:39;;;;;;;8.87;3.67;;;;;10.60;99047.00;;;;5017239;28;20233;-71
2023/10/28 02:59:25;;;;;;;7.93;3.50;;;;;10.60;99043.00;;;;5013550;28;20228;-71
2023/10/28 03:02:14;;;;;;;5.73;3.23;;;;;10.60;99044.00;;;;5023751;28;20773;-72
2023/10/28 03:05:00;;;;;;;6.40;3.43;;;;;10.70;99043.00;;;;5019365;28;20238;-73
2023/10/28 03:07:47;;;;;;;13.83;3.67;;;;;10.70;99047.00;;;;5044499;28;20248;-70
2023/10/28 03:10:33;;;;;;;11.00;3.60;;;;;10.70;99035.00;;;;5038812;28;20232;-70
2023/10/28 03:13:20;;;;;;;10.80;3.67;;;;;10.70;99056.00;;;;5014650;28;20363;-70
2023/10/28 03:16:07;;;;;;;6.63;3.30;;;;;10.70;99047.00;;;;5037275;28;20301;-71
2023/10/28 03:18:55;;;;;;;6.00;3.50;;;;;10.80;99042.00;;;;5041140;28;20294;-70
2023/10/28 03:21:42;;;;;;;5.73;3.30;;;;;10.80;99039.00;;;;5022089;28;20232;-71
2023/10/28 03:24:29;;;;;;;6.10;3.27;;;;;10.80;99036.00;;;;5017159;28;20230;-69
2023/10/28 03:27:15;;;;;;;10.87;3.40;;;;;10.80;99039.00;;;;5021962;28;20320;-69
2023/10/28 03:30:01;;;;;;;5.33;3.10;;;;;10.80;99041.00;;;;5013647;28;20341;-72
2023/10/28 03:32:47;;;;;;;9.23;3.20;;;;;10.80;99030.00;;;;5043687;28;20236;-69
2023/10/28 03:35:35;;;;;;;5.03;3.10;;;;;10.80;99026.00;;;;5036688;28;20228;-72
2023/10/28 03:38:22;;;;;;;7.80;3.53;;;;;10.80;99031.00;;;;5018248;28;20593;-71
2023/10/28 03:41:09;;;;;;;6.93;3.03;;;;;10.80;99030.00;;;;5021980;28;20237;-70
2023/10/28 03:43:55;;;;;;;4.70;2.77;;;;;10.80;99028.00;;;;5023307;28;20319;-71
2023/10/28 03:46:41;;;;;;;6.10;2.67;;;;;10.80;99028.00;;;;5013194;28;20287;-70
2023/10/28 03:49:28;;;;;;;2.80;2.37;;;;;10.80;99035.00;;;;5010152;28;20308;-69
2023/10/28 03:52:16;;;;;;;9.97;2.77;;;;;10.80;99037.00;;;;5017930;28;20237;-71
2023/10/28 03:55:03;;;;;;;5.67;2.80;;;;;10.90;99033.00;;;;5020906;28;20320;-71
2023/10/28 03:57:49;;;;;;;8.13;2.50;;;;;10.80;99040.00;;;;5023316;28;20280;-71
2023/10/28 04:00:36;;;;;;;4.70;2.33;;;;;10.80;99040.00;;;;5019527;28;20253;-71
2023/10/28 04:03:23;;;;;;;5.27;3.00;;;;;10.80;99041.00;;;;5021830;28;20229;-70
2023/10/28 04:06:09;;;;;;;4.90;3.10;;;;;10.90;99043.00;;;;5017478;28;20903;-70
2023/10/28 04:08:57;;;;;;;5.73;2.87;;;;;10.80;99043.00;;;;5043913;28;20235;-72
2023/10/28 04:11:44;;;;;;;5.83;3.10;;;;;10.80;99044.00;;;;5018246;28;20786;-70
2023/10/28 04:14:31;;;;;;;7.77;2.70;;;;;10.80;99049.00;;;;5022711;28;20295;-70
2023/10/28 04:17:17;;;;;;;7.10;3.07;;;;;10.80;99040.00;;;;5021553;28;20280;-71
2023/10/28 04:20:04;;;;;;;6.13;3.20;;;;;10.80;99039.00;;;;5027042;28;20257;-70
2023/10/28 04:22:50;;;;;;;7.10;2.70;;;;;10.80;99058.00;;;;5019241;28;20648;-71
2023/10/28 04:25:38;;;;;;;5.00;2.73;;;;;10.80;99050.00;;;;5020939;28;20784;-70
2023/10/28 04:28:25;;;;;;;13.53;3.50;;;;;10.80;99044.00;;;;5023065;28;20380;-71
2023/10/28 04:31:11;;;;;;;6.00;2.83;;;;;10.80;99048.00;;;;5037165;28;20723;-72
2023/10/28 04:33:58;;;;;;;5.77;2.23;;;;;10.80;99047.00;;;;5040003;28;20244;-70
2023/10/28 04:36:44;;;;;;;9.93;2.67;;;;;10.80;99049.00;;;;5017351;28;20365;-71
2023/10/28 04:39:30;;;;;;;4.43;2.53;;;;;10.80;99047.00;;;;5017755;28;20236;-70
2023/10/28 04:42:19;;;;;;;4.67;2.70;;;;;10.80;99041.00;;;;5044633;28;20229;-72
2023/10/28 04:45:07;;;;;;;5.07;2.57;;;;;10.80;99043.00;;;;5025623;28;20241;-70
2023/10/28 04:47:53;;;;;;;4.23;2.67;;;;;10.80;99050.00;;;;5021632;28;20612;-70
2023/10/28 04:50:41;;;;;;;10.63;2.73;;;;;10.80;99050.00;;;;5047464;28;20702;-71
2023/10/28 04:53:27;;;;;;;4.90;2.70;;;;;10.80;99057.00;;;;5038091;28;20356;-71
2023/10/28 04:56:13;;;;;;;7.20;2.60;;;;;10.80;99051.00;;;;5041361;28;20228;-70
2023/10/28 04:59:01;;;;;;;6.30;1.93;;;;;10.70;99057.00;;;;5041621;28;20239;-71
2023/10/28 05:01:47;;;;;;;3.50;2.30;;;;;10.80;99054.00;;;;5046559;28;20594;-70
2023/10/28 05:04:34;;;;;;;3.23;2.20;;;;;10.80;99054.00;;;;5025906;28;20225;-71
2023/10/28 05:07:20;;;;;;;4.97;2.27;;;;;10.80;99051.00;;;;5046934;28;20244;-70
2023/10/28 05:10:09;;;;;;;4.43;2.43;;;;;10.80;99043.00;;;;5043038;28;20717;-71
2023/10/28 05:12:55;;;;;;;7.20;2.47;;;;;10.80;99048.00;;;;5041048;28;20290;-70
2023/10/28 05:15:43;;;;;;;7.07;2.47;;;;;10.80;99042.00;;;;5041506;28;20232;-71
2023/10/28 05:18:29;;;;;;;5.43;2.60;;;;;10.80;99043.00;;;;5045526;28;20360;-71
2023/10/28 05:21:16;;;;;;;5.73;2.77;;;;;10.70;99040.00;;;;5036071;28;20233;-69
2023/10/28 05:24:02;;;;;;;2.93;1.90;;;;;10.70;99039.00;;;;5041693;28;20236;-71
2023/10/28 05:26:48;;;;;;;7.67;2.90;;;;;10.70;99034.00;;;;5030168;28;20603;-70
2023/10/28 05:29:36;;;;;;;7.07;2.57;;;;;10.60;99044.00;;;;5044302;28;20231;-71
2023/10/28 05:32:23;;;;;;;6.63;2.63;;;;;10.60;99056.00;;;;5032668;28;20237;-70
2023/10/28 05:35:11;;;;;;;4.17;2.13;;;;;10.60;99051.00;;;;5029940;28;20319;-72
2023/10/28 05:37:58;;;;;;;5.30;2.37;;;;;10.60;99059.00;;;;5020096;28;20226;-70
2023/10/28 05:40:45;;;;;;;2.87;2.00;;;;;10.50;99050.00;;;;5023232;28;20225;-71
2023/10/28 05:43:32;;;;;;;2.50;2.07;;;;;10.40;99053.00;;;;5016764;28;20232;-70
2023/10/28 05:46:22;;;;;;;6.33;2.30;;;;;10.40;99054.00;;;;5020772;28;20230;-71
2023/10/28 05:49:12;;;;;;;5.13;2.27;;;;;10.40;99052.00;;;;5023313;28;20381;-71
2023/10/28 05:51:58;;;;;;;3.27;2.23;;;;;10.30;99048.00;;;;5019416;28;20234;-70
2023/10/28 05:54:45;;;;;;;8.33;2.73;;;;;10.30;99050.00;;;;5022196;28;20752;-71
2023/10/28 05:57:31;;;;;;;5.00;2.37;;;;;10.30;99048.00;;;;5023482;28;20346;-74
2023/10/28 06:00:18;;;;;;;6.63;2.33;;;;;10.30;99049.00;;;;5024957;28;20253;-71
2023/10/28 06:03:04;;;;;;;6.27;2.37;;;;;10.30;99063.00;;;;5022409;28;20236;-72
2023/10/28 06:05:52;;;;;;;5.23;2.80;;;;;10.30;99054.00;;;;5023199;28;20276;-71
2023/10/28 06:08:39;;;;;;;3.50;2.20;;;;;10.40;99058.00;;;;5019720;28;20245;-73
2023/10/28 06:11:25;;;;;;;4.27;2.13;;;;;10.40;99072.00;;;;5023326;28;20233;-71
2023/10/28 06:14:12;;;;;;;4.63;2.37;;;;;10.40;99063.00;;;;5020964;28;20269;-74
2023/10/28 06:16:58;;;;;;;3.33;2.47;;;;;10.40;99057.00;;;;5025018;28;20255;-72
2023/10/28 06:19:45;;;;;;;5.63;2.80;;;;;10.40;99065.00;;;;5044320;28;20237;-71
2023/10/28 06:22:34;;;;;;;4.60;2.40;;;;;10.50;99063.00;;;;5026011;28;20229;-73
2023/10/28 06:25:20;;;;;;;4.20;2.67;;;;;10.50;99066.00;;;;5021569;28;20297;-71
2023/10/28 06:28:06;;;;;;;3.97;2.43;;;;;10.50;99068.00;;;;5024725;28;20940;-71
2023/10/28 06:30:53;;;;;;;5.70;2.60;;;;;10.50;99061.00;;;;5016535;28;20854;-71
2023/10/28 06:33:39;;;;;;;6.97;2.90;;;;;10.50;99068.00;;;;5025382;28;20279;-72
2023/10/28 06:36:25;;;;;;;4.17;2.50;;;;;10.60;99076.00;;;;5022064;28;20320;-73
2023/10/28 06:39:16;;;;;;;5.23;2.23;;;;;10.60;99070.00;;;;5019661;28;20283;-72
2023/10/28 06:42:04;;;;;;;3.10;2.27;;;;;10.60;99081.00;;;;5021370;28;20230;-71
2023/10/28 06:44:50;;;;;;;7.50;2.40;;;;;10.60;99074.00;;;;5024665;28;20256;-71
2023/10/28 06:47:37;;;;;;;4.17;2.80;;;;;10.60;99085.00;;;;5022956;28;20233;-72
2023/10/28 06:50:25;;;;;;;3.17;2.50;;;;;10.60;99082.00;;;;5038013;28;20252;-72
2023/10/28 06:53:11;;;;;;;3.27;2.23;;;;;10.70;99083.00;;;;5036897;28;20235;-72
2023/10/28 06:56:03;;;;;;;5.93;2.40;;;;;10.70;99085.00;;;;5027147;28;20225;-71
2023/10/28 06:58:49;;;;;;;4.10;2.80;;;;;10.80;99093.00;;;;5022889;28;20721;-73
2023/10/28 07:01:35;;;;;;;6.93;2.27;;;;;10.80;99093.00;;;;5023443;28;20608;-72
2023/10/28 07:04:22;;;;;;;4.50;2.50;;;;;10.80;99098.00;;;;5019625;28;20265;-71
2023/10/28 07:07:12;;;;;;;5.90;2.77;;;;;10.80;99099.00;;;;5025246;28;20307;-71
2023/10/28 07:09:59;;;;;;;6.30;2.33;;;;;10.90;99089.00;;;;5032337;28;20348;-70
2023/10/28 07:12:46;;;;;;;4.37;1.90;;;;;10.90;99092.00;;;;5024586;28;20691;-71
2023/10/28 07:15:34;;;;;;;3.80;2.43;;;;;10.90;99094.00;;;;5019319;28;20974;-72
2023/10/28 07:18:20;;;;;;;4.30;2.30;;;;;10.90;99089.00;;;;5017164;28;20257;-70
2023/10/28 07:21:10;;;;;;;3.23;2.13;;;;;11.00;99094.00;;;;5012930;28;20229;-71
2023/10/28 07:23:57;;;;;;;3.30;2.20;;;;;11.00;99093.00;;;;5023368;28;20271;-72
2023/10/28 07:26:44;;;;;;;3.10;2.13;;;;;11.00;99099.00;;;;5023689;28;20233;-72
2023/10/28 07:29:32;;;;;;;2.50;2.23;;;;;11.00;99104.00;;;;5016498;28;20253;-71
2023/10/28 07:32:19;;;;;;;2.40;2.00;;;;;11.00;99099.00;;;;5018003;28;20360;-73
2023/10/28 07:35:07;;;;;;;5.57;2.20;;;;;11.10;99108.00;;;;5014762;28;20237;-71
2023/10/28 07:37:53;;;;;;;5.03;2.27;;;;;11.10;99108.00;;;;5018471;28;20226;-71
2023/10/28 07:40:40;;;;;;;5.73;2.57;;;;;11.10;99119.00;;;;5013675;28;20249;-71
2023/10/28 07:43:26;;;;;;;2.70;1.83;;;;;11.10;99109.00;;;;5044505;28;20230;-72
2023/10/28 07:46:14;;;;;;;3.40;1.77;;;;;11.10;99111.00;;;;5034125;28;20228;-72
2023/10/28 07:49:00;;;;;;;2.40;1.67;;;;;11.20;99109.00;;;;5016722;28;20307;-71
2023/10/28 07:51:47;;;;;;;2.63;1.90;;;;;11.30;99112.00;;;;5017458;28;20853;-73
2023/10/28 07:54:33;;;;;;;6.87;2.00;;;;;11.30;99112.00;;;;5024402;28;20237;-70
2023/10/28 07:57:20;;;;;;;2.20;1.60;;;;;11.40;99111.00;;;;5017874;28;20233;-71
2023/10/28 08:00:10;;;;;;;3.03;1.60;;;;;11.50;99115.00;;;;5017593;28;20233;-71
2023/10/28 08:02:59;;;;;;;3.10;1.77;;;;;11.60;99114.00;;;;5015335;28;20277;-71
2023/10/28 08:05:45;;;;;;;4.37;1.63;;;;;11.60;99117.00;;;;5013597;28;20603;-71
2023/10/28 08:08:31;;;;;;;3.10;1.97;;;;;11.70;99130.00;;;;5018633;28;20241;-71
2023/10/28 08:11:18;;;;;;;5.27;1.77;;;;;11.70;99122.00;;;;5012898;28;20711;-70
2023/10/28 08:14:05;;;;;;;4.50;1.97;;;;;11.70;99119.00;;;;5022795;28;20233;-71
2023/10/28 08:16:51;;;;;;;4.73;2.00;;;;;11.80;99127.00;;;;5016926;28;20312;-72
2023/10/28 08:19:40;;;;;;;3.80;2.00;;;;;11.80;99127.00;;;;5021426;28;20236;-71
2023/10/28 08:22:27;;;;;;;3.43;1.90;;;;;11.80;99124.00;;;;5017904;28;20245;-72
2023/10/28 08:25:16;;;;;;;3.37;1.50;;;;;11.80;99141.00;;;;5030663;28;20691;-71
2023/10/28 08:28:03;;;;;;;3.27;1.50;;;;;11.80;99130.00;;;;5039154;28;20624;-71
2023/10/28 08:30:50;;;;;;;3.07;1.90;;;;;11.80;99133.00;;;;5025937;28;20770;-71
2023/10/28 08:33:36;;;;;;;3.67;1.60;;;;;11.90;99138.00;;;;5019051;28;20610;-71
2023/10/28 08:36:25;;;;;;;1.53;1.37;;;;;11.90;99136.00;;;;5015427;28;20225;-70
2023/10/28 08:39:13;;;;;;;2.40;1.40;;;;;11.90;99139.00;;;;5014592;28;20683;-72
2023/10/28 08:42:05;;;;;;;1.97;1.37;;;;;11.90;99138.00;;;;5019111;28;20233;-70
2023/10/28 08:44:53;;;;;;;2.10;1.90;;;;;11.90;99143.00;;;;5020349;28;20229;-70
2023/10/28 08:47:42;;;;;;;3.10;1.77;;;;;11.90;99144.00;;;;5037404;28;20237;-72
2023/10/28 08:50:28;;;;;;;2.23;1.73;;;;;11.90;99150.00;;;;5034306;28;20283;-75
2023/10/28 08:53:17;;;;;;;2.00;1.50;;;;;11.80;99153.00;;;;5043149;28;20347;-71
2023/10/28 08:56:05;;;;;;;3.33;1.40;;;;;11.80;99151.00;;;;5017695;28;20238;-71
2023/10/28 08:58:52;;;;;;;5.37;1.70;;;;;11.90;99152.00;;;;5039249;28;20729;-71
2023/10/28 09:01:40;;;;;;;3.20;1.67;;;;;11.80;99162.00;;;;5024835;28;20234;-71
2023/10/28 09:04:27;;;;;;;6.10;1.60;;;;;11.80;99161.00;;;;5021503;28;20364;-71
2023/10/28 09:07:14;;;;;;;3.53;2.00;;;;;11.90;99166.00;;;;5026856;28;20245;-69
2023/10/28 09:10:04;;;;;;;3.43;2.10;;;;;11.90;99173.00;;;;5012544;28;20245;-71
2023/10/28 09:12:51;;;;;;;2.13;1.40;;;;;11.90;99186.00;;;;5022161;28;20958;-71
2023/10/28 09:15:38;;;;;;;2.13;1.30;;;;;11.80;99177.00;;;;5020862;28;20237;-70
2023/10/28 09:18:24;;;;;;;1.83;1.40;;;;;11.90;99185.00;;;;5012553;28;20576;-72
2023/10/28 09:21:12;;;;;;;1.60;1.50;;;;;11.90;99182.00;;;;5019854;28;20245;-72
2023/10/28 09:24:00;;;;;;;2.97;1.47;;;;;12.00;99176.00;;;;5017545;28;20241;-71
2023/10/28 09:26:50;;;;;;;1.47;1.10;;;;;12.00;99164.00;;;;5025084;28;20232;-71
2023/10/28 09:29:37;;;;;;;7.17;3.50;;;;;12.00;99182.00;;;;5019815;28;20241;-71
2023/10/28 09:32:24;;;;;;;3.10;2.20;;;;;12.00;99185.00;;;;5010170;28;20333;-72
2023/10/28 09:35:11;;;;;;;2.27;1.50;;;;;12.10;99194.00;;;;5025262;28;20237;-70
2023/10/28 09:37:59;;;;;;;1.67;1.40;;;;;12.00;99194.00;;;;5021172;28;20229;-70
2023/10/28 09:40:46;;;;;;;2.83;1.60;;;;;12.10;99191.00;;;;5012529;28;20230;-70
2023/10/28 09:43:37;;;;;;;5.47;1.70;;;;;12.10;99186.00;;;;5014179;28;20218;-70
2023/10/28 09:46:31;;;;;;;3.57;1.83;;;;;12.20;99193.00;;;;5016060;28;20245;-71
2023/10/28 09:49:21;;;;;;;4.90;2.00;;;;;12.30;99193.00;;;;5021796;28;20999;-69
2023/10/28 09:52:14;;;;;;;5.03;2.33;;;;;12.40;99194.00;;;;5025551;28;20229;-70
2023/10/28 09:55:06;;;;;;;2.77;1.30;;;;;12.60;99210.00;;;;5018210;28;20293;-70
2023/10/28 09:58:01;;;;;;;1.40;1.30;;;;;12.60;99200.00;;;;5015002;28;20218;-71
2023/10/28 10:00:51;;;;;;;2.17;1.37;;;;;12.60;99199.00;;;;5039052;28;20259;-70
2023/10/28 10:03:51;;;;;;;6.50;1.83;;;;;12.70;99200.00;;;;5044704;28;20232;-71
2023/10/28 10:06:38;;;;;;;17.63;8.97;;;;;12.80;99200.00;;;;5025755;28;21089;-70
2023/10/28 10:09:24;;;;;;;3.17;2.20;;;;;12.80;99197.00;;;;5040387;28;20642;-72
2023/10/28 10:12:11;;;;;;;4.60;1.40;;;;;12.80;99201.00;;;;5039168;28;20643;-71
2023/10/28 10:15:02;;;;;;;3.63;2.00;;;;;12.70;99199.00;;;;5038105;28;20233;-70
2023/10/28 10:17:59;;;;;;;4.90;3.20;;;;;12.60;99202.00;;;;5044996;28;21011;-70
2023/10/28 10:20:45;;;;;;;3.33;1.60;;;;;12.60;99208.00;;;;5042094;28;20642;-71
2023/10/28 10:23:41;;;;;;;2.27;1.50;;;;;12.60;99201.00;;;;5038616;28;20236;-71
2023/10/28 10:26:29;;;;;;;4.27;1.70;;;;;12.70;99196.00;;;;5019233;28;20250;-69
2023/10/28 10:29:16;;;;;;;5.20;1.90;;;;;12.70;99201.00;;;;5016712;28;20238;-72
2023/10/28 10:32:04;;;;;;;3.70;1.60;;;;;12.70;99201.00;;;;5021087;28;20229;-70
2023/10/28 10:34:52;;;;;;;11.93;6.70;;;;;12.70;99193.00;;;;5018711;28;20892;-70
2023/10/28 10:37:39;;;;;;;8.50;3.10;;;;;12.70;99201.00;;;;5011596;28;20226;-70
2023/10/28 10:40:25;;;;;;;3.20;1.93;;;;;12.80;99187.00;;;;5025111;28;20356;-70
2023/10/28 10:43:12;;;;;;;6.87;2.50;;;;;12.90;99196.00;;;;5036732;28;20222;-70
2023/10/28 10:45:59;;;;;;;3.03;1.47;;;;;13.00;99193.00;;;;5044932;28;20319;-71
2023/10/28 10:48:46;;;;;;;1.97;1.40;;;;;13.00;99188.00;;;;5033657;28;20236;-70
2023/10/28 10:51:35;;;;;;;9.67;4.60;;;;;13.00;99179.00;;;;5020652;28;20229;-71
2023/10/28 10:54:23;;;;;;;4.60;3.13;;;;;13.10;99185.00;;;;5018491;28;20235;-70
2023/10/28 10:57:10;;;;;;;13.90;8.77;;;;;13.30;99180.00;;;;5041899;28;20248;-70
2023/10/28 10:59:58;;;;;;;4.77;1.70;;;;;13.40;99179.00;;;;5031859;28;20237;-70
2023/10/28 11:02:45;;;;;;;3.53;2.00;;;;;13.50;99182.00;;;;5032859;28;20249;-72
2023/10/28 11:05:32;;;;;;;2.60;1.40;;;;;13.50;99188.00;;;;5027790;28;20603;-70
2023/10/28 11:08:20;;;;;;;2.07;1.20;;;;;13.50;99182.00;;;;5022372;28;20695;-70
2023/10/28 11:11:07;;;;;;;1.93;1.50;;;;;13.60;99169.00;;;;5020824;28;20312;-72
2023/10/28 11:13:53;;;;;;;3.40;1.33;;;;;13.60;99180.00;;;;5014375;28;20714;-72
2023/10/28 11:16:41;;;;;;;3.70;1.40;;;;;13.80;99176.00;;;;5024732;28;20295;-72
2023/10/28 11:19:28;;;;;;;2.30;1.33;;;;;13.90;99172.00;;;;5038289;28;20233;-70
2023/10/28 11:22:15;;;;;;;5.07;2.47;;;;;13.80;99158.00;;;;5019618;28;20236;-71
2023/10/28 11:25:04;;;;;;;2.93;1.60;;;;;13.90;99152.00;;;;5017154;28;20233;-71
2023/10/28 11:27:51;;;;;;;6.30;2.00;;;;;14.10;99137.00;;;;5024065;28;20312;-68
2023/10/28 11:30:38;;;;;;;1.47;1.37;;;;;14.20;99150.00;;;;5018722;28;20320;-72
2023/10/28 11:33:26;;;;;;;4.87;1.60;;;;;14.30;99147.00;;;;5020409;28;20322;-71
2023/10/28 11:36:16;;;;;;;3.87;1.40;;;;;14.30;99152.00;;;;5018845;28;20236;-69
2023/10/28 11:39:08;;;;;;;2.87;1.93;;;;;14.20;99162.00;;;;5022778;28;20931;-70
2023/10/28 11:41:56;;;;;;;1.40;1.30;;;;;14.20;99155.00;;;;5013558;28;20680;-69
2023/10/28 11:44:47;;;;;;;1.60;1.10;;;;;14.10;99146.00;;;;5024666;28;20223;-70
2023/10/28 11:47:33;;;;;;;2.63;1.13;;;;;14.20;99154.00;;;;5022586;28;20259;-70
2023/10/28 11:50:21;;;;;;;3.00;1.20;;;;;14.30;99163.00;;;;5024294;28;20235;-69
2023/10/28 11:53:08;;;;;;;3.63;1.60;;;;;14.50;99155.00;;;;5017190;28;20234;-70
2023/10/28 11:55:55;;;;;;;4.77;1.60;;;;;14.50;99147.00;;;;5022189;28;20293;-71
2023/10/28 11:58:42;;;;;;;2.60;1.50;;;;;14.60;99161.00;;;;5039752;28;20230;-71
2023/10/28 12:01:31;;;;;;;14.23;5.30;;;;;14.80;99162.00;;;;5045214;28;20291;-70
2023/10/28 12:04:18;;;;;;;4.07;1.80;;;;;14.70;99161.00;;;;5044798;28;20312;-71
2023/10/28 12:07:05;;;;;;;1.87;1.40;;;;;14.70;99165.00;;;;5040753;28;20240;-70
2023/10/28 12:09:51;;;;;;;1.50;1.10;;;;;14.70;99156.00;;;;5026301;28;20231;-70
2023/10/28 12:12:38;;;;;;;4.97;1.63;;;;;14.80;99154.00;;;;5019306;28;20280;-69
2023/10/28 12:15:26;;;;;;;6.30;1.80;;;;;14.90;99162.00;;;;5021803;28;20613;-70
2023/10/28 12:18:12;;;;;;;6.17;1.43;;;;;14.90;99176.00;;;;5022958;28;20659;-70
2023/10/28 12:21:01;;;;;;;1.33;1.17;;;;;14.90;99162.00;;;;5038324;28;20241;-68
2023/10/28 12:23:48;;;;;;;4.70;1.60;;;;;14.90;99172.00;;;;5037947;28;20235;-71
2023/10/28 12:26:35;;;;;;;3.50;1.57;;;;;14.90;99159.00;;;;5043084;28;20277;-70
2023/10/28 12:29:22;;;;;;;2.53;1.17;;;;;14.90;99173.00;;;;5040373;28;20291;-69
2023/10/28 12:32:10;;;;;;;3.23;1.13;;;;;15.00;99162.00;;;;5031862;28;20255;-70
2023/10/28 12:34:57;;;;;;;2.97;1.30;;;;;14.90;99161.00;;;;5053209;28;20300;-69
2023/10/28 12:37:44;;;;;;;2.43;1.20;;;;;15.00;99169.00;;;;5066661;28;20233;-69
2023/10/28 12:40:32;;;;;;;2.90;1.23;;;;;14.90;99170.00;;;;5050670;28;20237;-69
2023/10/28 12:43:18;;;;;;;5.37;1.80;;;;;14.70;99158.00;;;;5041011;28;20235;-71
2023/10/28 12:46:05;;;;;;;2.97;1.40;;;;;14.70;99158.00;;;;5043624;28;20299;-71
2023/10/28 12:48:53;;;;;;;3.63;1.27;;;;;14.50;99158.00;;;;5036995;28;20236;-69
2023/10/28 12:51:39;;;;;;;2.77;1.37;;;;;14.50;99161.00;;;;5045767;28;20261;-69
2023/10/28 12:54:27;;;;;;;5.03;1.63;;;;;14.50;99156.00;;;;5046906;28;20282;-69
2023/10/28 12:57:14;;;;;;;5.07;1.33;;;;;14.40;99160.00;;;;5025355;28;20768;-69
2023/10/28 13:00:00;;;;;;;2.03;1.33;;;;;14.20;99179.00;;;;5026518;28;20232;-71
2023/10/28 13:02:48;;;;;;;3.00;1.50;;;;;14.20;99183.00;;;;5020391;28;20229;-69
2023/10/28 13:05:36;;;;;;;6.97;1.60;;;;;14.00;99186.00;;;;5024160;28;20238;-71
2023/10/28 13:08:23;;;;;;;5.87;1.90;;;;;13.90;99185.00;;;;5020684;28;20257;-68
2023/10/28 13:11:09;;;;;;;6.53;2.13;;;;;13.80;99188.00;;;;5023695;28;20236;-69
2023/10/28 13:13:56;;;;;;;4.00;1.83;;;;;13.80;99184.00;;;;5024827;28;20229;-71
2023/10/28 13:16:42;;;;;;;6.37;1.77;;;;;13.70;99196.00;;;;5018215;28;20229;-68
2023/10/28 13:19:29;;;;;;;5.07;2.20;;;;;13.80;99200.00;;;;5019347;28;20239;-70
2023/10/28 13:22:17;;;;;;;3.57;1.90;;;;;13.90;99186.00;;;;5021951;28;20237;-70
2023/10/28 13:25:04;;;;;;;8.27;4.30;;;;;13.90;99188.00;;;;5023507;28;20231;-70
2023/10/28 13:27:50;;;;;;;12.77;5.47;;;;;13.90;99188.00;;;;5026193;28;20241;-70
2023/10/28 13:30:37;;;;;;;9.03;3.00;;;;;13.90;99194.00;;;;5022938;28;20324;-70
2023/10/28 13:33:23;;;;;;;5.10;2.00;;;;;13.80;99196.00;;;;5024605;28;20336;-71
2023/10/28 13:36:10;;;;;;;2.53;1.60;;;;;13.70;99199.00;;;;5018843;28;20233;-71
2023/10/28 13:38:58;;;;;;;7.07;2.70;;;;;13.70;99202.00;;;;5024659;28;20356;-70
2023/10/28 13:41:46;;;;;;;6.77;2.10;;;;;13.70;99203.00;;;;5044927;28;20237;-69
2023/10/28 13:44:32;;;;;;;7.77;2.20;;;;;13.70;99201.00;;;;5046658;28;20232;-70
2023/10/28 13:47:19;;;;;;;5.83;2.00;;;;;13.70;99220.00;;;;5041876;28;20237;-71
2023/10/28 13:50:08;;;;;;;8.53;2.00;;;;;13.60;99212.00;;;;5021179;28;20234;-70
2023/10/28 13:52:54;;;;;;;6.53;2.47;;;;;13.50;99215.00;;;;5026301;28;20264;-71
2023/10/28 13:55:42;;;;;;;7.23;3.17;;;;;13.50;99217.00;;;;5039800;28;20234;-71
2023/10/28 13:58:29;;;;;;;9.43;1.83;;;;;13.40;99208.00;;;;5040571;28;20308;-69